createdAt,value
2018-12-27T00:00:20.475Z,0.00
2018-12-27T00:01:19.569Z,0.00
2018-12-27T00:02:20.525Z,0.00
2018-12-27T00:03:20.021Z,0.00
2018-12-27T00:04:20.026Z,0.00
2018-12-27T00:05:19.442Z,0.00
2018-12-27T00:06:19.984Z,0.00
2018-12-27T00:07:19.372Z,0.00
2018-12-27T00:08:19.973Z,0.00
2018-12-27T00:09:19.355Z,0.00
2018-12-27T00:10:19.269Z,0.00
2018-12-27T00:11:19.247Z,0.00
2018-12-27T00:12:19.206Z,0.00
2018-12-27T00:13:19.177Z,0.00
2018-12-27T00:14:19.183Z,0.00
2018-12-27T00:15:19.160Z,0.00
2018-12-27T00:16:19.079Z,0.00
2018-12-27T00:17:19.975Z,0.00
2018-12-27T00:18:19.027Z,0.00
2018-12-27T00:19:19.063Z,0.00
2018-12-27T00:20:18.945Z,0.00
2018-12-27T00:21:18.914Z,0.00
2018-12-27T00:22:18.888Z,0.00
2018-12-27T00:23:19.022Z,0.00
2018-12-27T00:24:18.810Z,0.00
2018-12-27T00:25:20.454Z,0.00
2018-12-27T00:26:19.042Z,0.00
2018-12-27T00:27:18.724Z,0.00
2018-12-27T00:28:19.471Z,0.00
2018-12-27T00:29:18.654Z,0.00
2018-12-27T00:30:19.471Z,0.00
2018-12-27T00:31:18.694Z,0.00
2018-12-27T00:32:18.573Z,0.00
2018-12-27T00:33:19.472Z,0.00
2018-12-27T00:34:19.480Z,0.00
2018-12-27T00:35:18.470Z,0.00
2018-12-27T00:36:18.527Z,0.00
2018-12-27T00:37:18.397Z,0.00
2018-12-27T00:38:18.979Z,0.00
2018-12-27T00:39:18.334Z,0.00
2018-12-27T00:40:19.010Z,0.00
2018-12-27T00:41:18.324Z,0.00
2018-12-27T00:42:18.986Z,0.00
2018-12-27T00:43:18.286Z,0.00
2018-12-27T00:44:18.178Z,0.00
2018-12-27T00:45:18.975Z,0.00
2018-12-27T00:46:18.096Z,0.00
2018-12-27T00:47:18.070Z,0.00
2018-12-27T00:48:18.529Z,0.00
2018-12-27T00:49:18.879Z,0.00
2018-12-27T00:50:18.009Z,0.00
2018-12-27T00:51:17.972Z,0.00
2018-12-27T00:52:17.929Z,0.00
2018-12-27T00:53:17.876Z,0.00
2018-12-27T00:54:18.043Z,0.00
2018-12-27T00:55:18.503Z,0.00
2018-12-27T00:56:18.486Z,0.00
2018-12-27T00:57:18.514Z,0.00
2018-12-27T00:58:18.519Z,0.00
2018-12-27T00:59:18.047Z,0.00
2018-12-27T01:00:18.492Z,0.00
2018-12-27T01:01:17.643Z,0.00
2018-12-27T01:02:17.584Z,0.00
2018-12-27T01:03:17.629Z,0.00
2018-12-27T01:04:18.495Z,0.00
2018-12-27T01:05:17.575Z,0.00
2018-12-27T01:06:17.545Z,0.00
2018-12-27T01:07:17.991Z,0.00
2018-12-27T01:08:17.417Z,0.00
2018-12-27T01:09:17.360Z,0.00
2018-12-27T01:10:17.378Z,0.00
2018-12-27T01:11:17.296Z,0.00
2018-12-27T01:12:17.252Z,0.00
2018-12-27T01:13:17.241Z,0.00
2018-12-27T01:14:17.191Z,0.00
2018-12-27T01:15:17.542Z,0.00
2018-12-27T01:16:17.193Z,0.00
2018-12-27T01:17:17.143Z,0.00
2018-12-27T01:18:17.067Z,0.00
2018-12-27T01:19:17.033Z,0.00
2018-12-27T01:20:16.995Z,0.00
2018-12-27T01:21:16.962Z,0.00
2018-12-27T01:22:17.048Z,0.00
2018-12-27T01:23:16.903Z,0.00
2018-12-27T01:24:17.486Z,0.00
2018-12-27T01:25:16.830Z,0.00
2018-12-27T01:26:16.840Z,0.00
2018-12-27T01:27:16.871Z,0.00
2018-12-27T01:28:16.738Z,0.00
2018-12-27T01:29:16.704Z,0.00
2018-12-27T01:30:17.481Z,0.00
2018-12-27T01:31:16.647Z,0.00
2018-12-27T01:32:16.654Z,0.00
2018-12-27T01:33:18.868Z,0.00
2018-12-27T01:34:16.541Z,0.00
2018-12-27T01:35:16.511Z,0.00
2018-12-27T01:36:16.477Z,0.00
2018-12-27T01:37:16.491Z,0.00
2018-12-27T01:38:16.463Z,0.00
2018-12-27T01:39:16.378Z,0.00
2018-12-27T01:40:16.347Z,0.00
2018-12-27T01:41:16.338Z,0.00
2018-12-27T01:42:16.284Z,0.00
2018-12-27T01:43:16.301Z,0.00
2018-12-27T01:44:16.225Z,0.00
2018-12-27T01:45:16.190Z,0.00
2018-12-27T01:46:16.154Z,0.00
2018-12-27T01:47:16.983Z,0.00
2018-12-27T01:48:16.133Z,0.00
2018-12-27T01:49:16.066Z,0.00
2018-12-27T01:50:16.078Z,0.00
2018-12-27T01:51:16.978Z,0.00
2018-12-27T01:52:16.483Z,0.00
2018-12-27T01:53:15.929Z,0.00
2018-12-27T01:54:15.934Z,0.00
2018-12-27T01:55:15.862Z,0.00
2018-12-27T01:56:15.828Z,0.00
2018-12-27T01:57:15.799Z,0.00
2018-12-27T01:58:15.764Z,0.00
2018-12-27T01:59:16.040Z,0.00
2018-12-27T02:00:15.702Z,0.00
2018-12-27T02:01:15.671Z,0.00
2018-12-27T02:02:15.641Z,0.00
2018-12-27T02:03:15.614Z,0.00
2018-12-27T02:04:15.623Z,0.00
2018-12-27T02:05:15.538Z,0.00
2018-12-27T02:06:15.505Z,0.00
2018-12-27T02:07:15.543Z,0.00
2018-12-27T02:08:15.442Z,0.00
2018-12-27T02:09:15.449Z,0.00
2018-12-27T02:10:15.432Z,0.00
2018-12-27T02:11:15.984Z,0.00
2018-12-27T02:12:15.402Z,0.00
2018-12-27T02:13:15.280Z,0.00
2018-12-27T02:14:15.305Z,0.00
2018-12-27T02:15:15.213Z,0.00
2018-12-27T02:16:15.178Z,0.00
2018-12-27T02:17:15.145Z,0.00
2018-12-27T02:18:15.120Z,0.00
2018-12-27T02:19:15.143Z,0.00
2018-12-27T02:20:15.988Z,0.00
2018-12-27T02:21:15.100Z,0.00
2018-12-27T02:22:15.001Z,0.00
2018-12-27T02:23:15.494Z,0.00
2018-12-27T02:24:14.974Z,0.00
2018-12-27T02:25:14.898Z,0.00
2018-12-27T02:26:15.488Z,0.00
2018-12-27T02:27:14.835Z,0.00
2018-12-27T02:28:14.801Z,0.00
2018-12-27T02:29:14.839Z,0.00
2018-12-27T02:30:14.732Z,0.00
2018-12-27T02:31:15.492Z,0.00
2018-12-27T02:32:14.670Z,0.00
2018-12-27T02:33:14.643Z,0.00
2018-12-27T02:34:15.043Z,0.00
2018-12-27T02:35:14.572Z,0.00
2018-12-27T02:36:15.490Z,0.00
2018-12-27T02:37:14.507Z,0.00
2018-12-27T02:38:14.476Z,0.00
2018-12-27T02:39:14.481Z,0.00
2018-12-27T02:40:14.405Z,0.00
2018-12-27T02:41:14.389Z,0.00
2018-12-27T02:42:14.985Z,0.00
2018-12-27T02:43:14.313Z,0.00
2018-12-27T02:44:14.323Z,0.00
2018-12-27T02:45:14.241Z,0.00
2018-12-27T02:46:14.256Z,0.00
2018-12-27T02:47:14.173Z,0.00
2018-12-27T02:48:14.145Z,0.00
2018-12-27T02:49:14.109Z,0.00
2018-12-27T02:50:14.560Z,0.00
2018-12-27T02:51:14.051Z,0.00
2018-12-27T02:52:14.072Z,0.00
2018-12-27T02:53:13.993Z,0.00
2018-12-27T02:54:13.959Z,0.00
2018-12-27T02:55:14.489Z,0.00
2018-12-27T02:56:13.961Z,0.00
2018-12-27T02:57:14.494Z,0.00
2018-12-27T02:58:13.820Z,0.00
2018-12-27T02:59:13.845Z,0.00
2018-12-27T03:00:13.758Z,0.00
2018-12-27T03:01:13.729Z,0.00
2018-12-27T03:02:14.047Z,0.00
2018-12-27T03:03:13.740Z,0.00
2018-12-27T03:04:13.676Z,0.00
2018-12-27T03:05:13.598Z,0.00
2018-12-27T03:06:13.581Z,0.00
2018-12-27T03:07:13.530Z,0.00
2018-12-27T03:08:14.061Z,0.00
2018-12-27T03:09:13.474Z,0.00
2018-12-27T03:10:13.441Z,0.00
2018-12-27T03:11:13.403Z,0.00
2018-12-27T03:12:13.367Z,0.00
2018-12-27T03:13:13.547Z,0.00
2018-12-27T03:14:13.306Z,0.00
2018-12-27T03:15:13.272Z,0.00
2018-12-27T03:16:13.544Z,0.00
2018-12-27T03:17:13.213Z,0.00
2018-12-27T03:18:13.995Z,0.00
2018-12-27T03:19:13.189Z,0.00
2018-12-27T03:20:13.147Z,0.00
2018-12-27T03:21:13.122Z,0.00
2018-12-27T03:22:13.091Z,0.00
2018-12-27T03:23:13.030Z,0.00
2018-12-27T03:24:13.002Z,0.00
2018-12-27T03:25:13.488Z,0.00
2018-12-27T03:26:12.960Z,0.00
2018-12-27T03:27:12.886Z,0.00
2018-12-27T03:28:12.858Z,0.00
2018-12-27T03:29:12.819Z,0.00
2018-12-27T03:30:12.830Z,0.00
2018-12-27T03:31:12.805Z,0.00
2018-12-27T03:32:13.497Z,0.00
2018-12-27T03:33:12.694Z,0.00
2018-12-27T03:34:12.662Z,0.00
2018-12-27T03:35:12.631Z,0.00
2018-12-27T03:36:12.648Z,0.00
2018-12-27T03:37:13.525Z,0.00
2018-12-27T03:38:12.532Z,0.00
2018-12-27T03:39:12.492Z,0.00
2018-12-27T03:40:13.011Z,0.00
2018-12-27T03:41:12.556Z,0.00
2018-12-27T03:42:12.398Z,0.00
2018-12-27T03:43:13.101Z,0.00
2018-12-27T03:44:12.341Z,0.00
2018-12-27T03:45:12.994Z,0.00
2018-12-27T03:46:12.314Z,0.00
2018-12-27T03:47:12.284Z,0.00
2018-12-27T03:48:12.997Z,0.00
2018-12-27T03:49:12.276Z,0.00
2018-12-27T03:50:12.181Z,0.00
2018-12-27T03:51:12.110Z,0.00
2018-12-27T03:52:12.132Z,0.00
2018-12-27T03:53:13.018Z,0.00
2018-12-27T03:54:13.012Z,0.00
2018-12-27T03:55:12.498Z,0.00
2018-12-27T03:56:11.966Z,0.00
2018-12-27T03:57:11.948Z,0.00
2018-12-27T03:58:11.982Z,0.00
2018-12-27T03:59:12.508Z,0.00
2018-12-27T04:00:12.515Z,0.00
2018-12-27T04:01:12.500Z,0.00
2018-12-27T04:02:11.756Z,0.00
2018-12-27T04:03:11.775Z,0.00
2018-12-27T04:04:11.686Z,0.00
2018-12-27T04:05:11.652Z,0.00
2018-12-27T04:06:11.622Z,0.00
2018-12-27T04:07:11.590Z,0.00
2018-12-27T04:08:11.612Z,0.00
2018-12-27T04:09:11.565Z,0.00
2018-12-27T04:10:11.532Z,0.00
2018-12-27T04:11:11.466Z,0.00
2018-12-27T04:12:11.435Z,0.00
2018-12-27T04:13:11.406Z,0.00
2018-12-27T04:14:11.423Z,0.00
2018-12-27T04:15:11.341Z,0.00
2018-12-27T04:16:11.326Z,0.00
2018-12-27T04:17:11.334Z,0.00
2018-12-27T04:18:12.004Z,0.00
2018-12-27T04:19:11.584Z,0.00
2018-12-27T04:20:11.174Z,0.00
2018-12-27T04:21:12.002Z,0.00
2018-12-27T04:22:12.014Z,0.00
2018-12-27T04:23:12.005Z,0.00
2018-12-27T04:24:11.558Z,0.00
2018-12-27T04:25:11.014Z,0.00
2018-12-27T04:26:11.501Z,0.00
2018-12-27T04:27:10.949Z,0.00
2018-12-27T04:28:10.912Z,0.00
2018-12-27T04:29:11.068Z,0.00
2018-12-27T04:30:10.926Z,0.00
2018-12-27T04:31:10.816Z,0.00
2018-12-27T04:32:10.793Z,0.00
2018-12-27T04:33:11.516Z,0.00
2018-12-27T04:34:11.133Z,0.00
2018-12-27T04:35:12.409Z,0.00
2018-12-27T04:36:10.658Z,0.00
2018-12-27T04:37:11.506Z,0.00
2018-12-27T04:38:11.502Z,0.00
2018-12-27T04:39:10.608Z,0.00
2018-12-27T04:40:11.542Z,0.00
2018-12-27T04:41:11.004Z,0.00
2018-12-27T04:42:10.460Z,0.00
2018-12-27T04:43:11.010Z,0.00
2018-12-27T04:44:10.429Z,0.00
2018-12-27T04:45:10.366Z,0.00
2018-12-27T04:46:10.394Z,0.00
2018-12-27T04:47:10.296Z,0.00
2018-12-27T04:48:10.273Z,0.00
2018-12-27T04:49:10.291Z,0.00
2018-12-27T04:50:11.077Z,0.00
2018-12-27T04:51:10.210Z,0.00
2018-12-27T04:52:10.133Z,0.00
2018-12-27T04:53:11.005Z,0.00
2018-12-27T04:54:11.005Z,0.00
2018-12-27T04:55:11.007Z,0.00
2018-12-27T04:56:10.057Z,0.00
2018-12-27T04:57:10.666Z,0.00
2018-12-27T04:58:10.510Z,0.00
2018-12-27T04:59:09.908Z,0.00
2018-12-27T05:00:10.511Z,0.00
2018-12-27T05:01:09.919Z,0.00
2018-12-27T05:02:09.807Z,0.00
2018-12-27T05:03:10.514Z,0.00
2018-12-27T05:04:17.799Z,0.00
2018-12-27T05:05:10.142Z,0.00
2018-12-27T05:06:09.679Z,0.00
2018-12-27T05:07:09.657Z,0.00
2018-12-27T05:08:10.519Z,0.00
2018-12-27T05:09:10.508Z,0.00
2018-12-27T05:10:09.597Z,0.00
2018-12-27T05:11:09.561Z,0.00
2018-12-27T05:12:10.025Z,0.00
2018-12-27T05:13:09.463Z,0.00
2018-12-27T05:14:09.425Z,0.00
2018-12-27T05:15:09.388Z,0.00
2018-12-27T05:16:09.411Z,0.00
2018-12-27T05:17:09.464Z,0.00
2018-12-27T05:18:09.295Z,0.00
2018-12-27T05:19:10.011Z,0.00
2018-12-27T05:20:09.227Z,0.00
2018-12-27T05:21:09.202Z,0.00
2018-12-27T05:22:09.570Z,0.00
2018-12-27T05:23:09.131Z,0.00
2018-12-27T05:24:10.011Z,0.00
2018-12-27T05:25:09.067Z,0.00
2018-12-27T05:26:10.030Z,0.00
2018-12-27T05:27:09.065Z,0.00
2018-12-27T05:28:09.529Z,0.00
2018-12-27T05:29:08.926Z,0.00
2018-12-27T05:30:08.898Z,0.00
2018-12-27T05:31:08.872Z,0.00
2018-12-27T05:32:09.087Z,0.00
2018-12-27T05:33:08.941Z,0.00
2018-12-27T05:34:08.763Z,0.00
2018-12-27T05:35:08.893Z,0.00
2018-12-27T05:36:08.705Z,0.00
2018-12-27T05:37:08.671Z,0.00
2018-12-27T05:38:08.951Z,0.00
2018-12-27T05:39:08.601Z,0.00
2018-12-27T05:40:08.576Z,0.00
2018-12-27T05:41:08.536Z,0.00
2018-12-27T05:42:08.558Z,0.00
2018-12-27T05:43:08.512Z,0.00
2018-12-27T05:44:08.509Z,0.00
2018-12-27T05:45:08.416Z,0.00
2018-12-27T05:46:08.370Z,0.00
2018-12-27T05:47:08.332Z,0.00
2018-12-27T05:48:08.757Z,0.00
2018-12-27T05:49:08.267Z,0.00
2018-12-27T05:50:08.241Z,0.00
2018-12-27T05:51:08.305Z,0.00
2018-12-27T05:52:08.169Z,0.00
2018-12-27T05:53:08.187Z,0.00
2018-12-27T05:54:08.103Z,0.00
2018-12-27T05:55:08.071Z,0.00
2018-12-27T05:56:08.198Z,0.00
2018-12-27T05:57:08.001Z,0.00
2018-12-27T05:58:08.022Z,0.00
2018-12-27T05:59:07.994Z,0.00
2018-12-27T06:00:07.910Z,0.00
2018-12-27T06:01:08.512Z,0.00
2018-12-27T06:02:07.843Z,0.00
2018-12-27T06:03:07.848Z,0.00
2018-12-27T06:04:07.774Z,0.00
2018-12-27T06:05:08.027Z,0.00
2018-12-27T06:06:07.708Z,0.00
2018-12-27T06:07:07.720Z,0.00
2018-12-27T06:08:07.638Z,0.00
2018-12-27T06:09:08.564Z,0.00
2018-12-27T06:10:07.578Z,0.00
2018-12-27T06:11:07.541Z,0.00
2018-12-27T06:12:07.532Z,0.00
2018-12-27T06:13:07.477Z,0.00
2018-12-27T06:14:08.014Z,0.00
2018-12-27T06:15:07.461Z,0.00
2018-12-27T06:16:07.428Z,0.00
2018-12-27T06:17:07.345Z,0.00
2018-12-27T06:18:08.015Z,0.00
2018-12-27T06:19:07.302Z,0.00
2018-12-27T06:20:07.295Z,0.00
2018-12-27T06:21:07.251Z,0.00
2018-12-27T06:22:07.223Z,0.00
2018-12-27T06:23:08.026Z,0.00
2018-12-27T06:24:07.181Z,0.00
2018-12-27T06:25:07.074Z,0.00
2018-12-27T06:26:07.561Z,0.00
2018-12-27T06:27:07.074Z,0.00
2018-12-27T06:28:06.975Z,0.00
2018-12-27T06:29:06.946Z,0.00
2018-12-27T06:30:06.921Z,0.00
2018-12-27T06:31:06.878Z,0.00
2018-12-27T06:32:06.896Z,0.00
2018-12-27T06:33:06.848Z,0.00
2018-12-27T06:34:06.780Z,0.00
2018-12-27T06:35:07.508Z,0.00
2018-12-27T06:36:06.840Z,0.00
2018-12-27T06:37:07.538Z,0.00
2018-12-27T06:38:06.697Z,0.00
2018-12-27T06:39:06.611Z,0.00
2018-12-27T06:40:06.575Z,0.00
2018-12-27T06:41:06.570Z,0.00
2018-12-27T06:42:06.509Z,0.00
2018-12-27T06:43:06.531Z,0.00
2018-12-27T06:44:06.456Z,0.00
2018-12-27T06:45:06.409Z,0.00
2018-12-27T06:46:06.380Z,0.00
2018-12-27T06:47:06.346Z,0.00
2018-12-27T06:48:06.374Z,0.00
2018-12-27T06:49:06.404Z,0.00
2018-12-27T06:50:06.251Z,0.00
2018-12-27T06:51:06.214Z,0.00
2018-12-27T06:52:06.179Z,0.00
2018-12-27T06:53:06.145Z,0.00
2018-12-27T06:54:06.161Z,0.00
2018-12-27T06:55:06.077Z,0.00
2018-12-27T06:56:07.016Z,0.00
2018-12-27T06:57:06.017Z,0.00
2018-12-27T06:58:05.984Z,0.00
2018-12-27T06:59:05.998Z,0.00
2018-12-27T07:00:05.977Z,0.00
2018-12-27T07:01:05.881Z,0.00
2018-12-27T07:02:05.856Z,0.00
2018-12-27T07:03:05.926Z,0.00
2018-12-27T07:04:05.831Z,0.00
2018-12-27T07:05:05.850Z,0.00
2018-12-27T07:06:05.737Z,0.00
2018-12-27T07:07:05.688Z,5.63
2018-12-27T07:08:05.656Z,5.63
2018-12-27T07:09:05.638Z,5.63
2018-12-27T07:10:05.634Z,5.63
2018-12-27T07:11:05.594Z,5.63
2018-12-27T07:12:05.525Z,5.63
2018-12-27T07:13:05.510Z,11.25
2018-12-27T07:14:05.444Z,11.25
2018-12-27T07:15:05.479Z,11.25
2018-12-27T07:16:05.403Z,11.25
2018-12-27T07:17:05.421Z,11.25
2018-12-27T07:18:05.318Z,16.88
2018-12-27T07:19:06.042Z,16.88
2018-12-27T07:20:05.301Z,16.88
2018-12-27T07:21:05.226Z,16.88
2018-12-27T07:22:06.020Z,16.88
2018-12-27T07:23:05.151Z,22.50
2018-12-27T07:24:05.116Z,22.50
2018-12-27T07:25:05.178Z,22.50
2018-12-27T07:26:05.059Z,22.50
2018-12-27T07:27:05.023Z,22.50
2018-12-27T07:28:04.981Z,28.13
2018-12-27T07:29:04.951Z,28.13
2018-12-27T07:30:04.956Z,28.13
2018-12-27T07:31:04.954Z,28.13
2018-12-27T07:32:04.896Z,28.13
2018-12-27T07:33:04.828Z,33.75
2018-12-27T07:34:04.781Z,33.75
2018-12-27T07:35:04.749Z,33.75
2018-12-27T07:36:04.721Z,33.75
2018-12-27T07:37:04.723Z,33.75
2018-12-27T07:38:04.651Z,33.75
2018-12-27T07:39:05.524Z,39.38
2018-12-27T07:40:04.585Z,39.38
2018-12-27T07:41:04.626Z,39.38
2018-12-27T07:42:04.571Z,39.38
2018-12-27T07:43:04.481Z,39.38
2018-12-27T07:44:05.031Z,45.00
2018-12-27T07:45:04.409Z,45.00
2018-12-27T07:46:10.689Z,45.00
2018-12-27T07:47:05.677Z,39.38
2018-12-27T07:48:04.304Z,33.75
2018-12-27T07:49:04.280Z,39.38
2018-12-27T07:50:04.277Z,39.38
2018-12-27T07:51:04.209Z,39.38
2018-12-27T07:52:04.214Z,39.38
2018-12-27T07:53:04.192Z,39.38
2018-12-27T07:54:04.109Z,39.38
2018-12-27T07:55:04.069Z,45.00
2018-12-27T07:56:04.039Z,50.63
2018-12-27T07:57:04.003Z,45.00
2018-12-27T07:58:04.576Z,39.38
2018-12-27T07:59:03.942Z,39.38
2018-12-27T08:00:03.913Z,39.38
2018-12-27T08:01:03.874Z,39.38
2018-12-27T08:02:03.835Z,33.75
2018-12-27T08:03:03.880Z,33.75
2018-12-27T08:04:03.772Z,33.75
2018-12-27T08:05:04.512Z,39.38
2018-12-27T08:06:03.711Z,39.38
2018-12-27T08:07:03.682Z,39.38
2018-12-27T08:08:03.695Z,39.38
2018-12-27T08:09:03.651Z,39.38
2018-12-27T08:10:03.574Z,39.38
2018-12-27T08:11:03.539Z,50.63
2018-12-27T08:12:03.506Z,50.63
2018-12-27T08:13:03.470Z,39.38
2018-12-27T08:14:03.478Z,39.38
2018-12-27T08:15:03.413Z,45.00
2018-12-27T08:16:04.035Z,56.25
2018-12-27T08:17:03.337Z,61.88
2018-12-27T08:18:03.305Z,56.25
2018-12-27T08:19:03.328Z,39.38
2018-12-27T08:20:03.243Z,39.38
2018-12-27T08:21:03.207Z,50.63
2018-12-27T08:22:03.300Z,61.88
2018-12-27T08:23:03.143Z,56.25
2018-12-27T08:24:03.176Z,56.25
2018-12-27T08:25:03.068Z,67.50
2018-12-27T08:26:03.042Z,61.88
2018-12-27T08:27:03.005Z,61.88
2018-12-27T08:28:02.973Z,61.88
2018-12-27T08:29:03.005Z,67.50
2018-12-27T08:30:02.942Z,84.38
2018-12-27T08:31:02.874Z,67.50
2018-12-27T08:32:02.835Z,61.88
2018-12-27T08:33:02.806Z,73.13
2018-12-27T08:34:02.773Z,73.13
2018-12-27T08:35:02.798Z,67.50
2018-12-27T08:36:02.706Z,67.50
2018-12-27T08:37:02.671Z,56.25
2018-12-27T08:38:02.662Z,61.88
2018-12-27T08:39:02.634Z,61.88
2018-12-27T08:40:02.618Z,56.25
2018-12-27T08:41:02.583Z,50.63
2018-12-27T08:42:02.509Z,50.63
2018-12-27T08:43:02.476Z,61.88
2018-12-27T08:44:02.441Z,61.88
2018-12-27T08:45:02.407Z,56.25
2018-12-27T08:46:02.434Z,67.50
2018-12-27T08:47:02.396Z,61.88
2018-12-27T08:48:02.935Z,61.88
2018-12-27T08:49:02.284Z,56.25
2018-12-27T08:50:02.249Z,50.63
2018-12-27T08:51:02.273Z,50.63
2018-12-27T08:52:02.199Z,61.88
2018-12-27T08:53:02.150Z,61.88
2018-12-27T08:54:02.121Z,56.25
2018-12-27T08:55:02.079Z,56.25
2018-12-27T08:56:02.100Z,67.50
2018-12-27T08:57:02.046Z,78.75
2018-12-27T08:58:02.038Z,73.13
2018-12-27T08:59:01.965Z,67.50
2018-12-27T09:00:01.916Z,67.50
2018-12-27T09:01:01.887Z,67.50
2018-12-27T09:02:02.529Z,67.50
2018-12-27T09:03:01.891Z,67.50
2018-12-27T09:04:01.785Z,67.50
2018-12-27T09:05:01.752Z,61.88
2018-12-27T09:06:01.717Z,61.88
2018-12-27T09:07:01.676Z,61.88
2018-12-27T09:08:02.138Z,67.50
2018-12-27T09:09:01.615Z,73.13
2018-12-27T09:10:01.588Z,78.75
2018-12-27T09:11:01.576Z,84.38
2018-12-27T09:12:01.561Z,73.13
2018-12-27T09:13:01.531Z,73.13
2018-12-27T09:14:01.450Z,67.50
2018-12-27T09:15:01.419Z,67.50
2018-12-27T09:16:01.383Z,67.50
2018-12-27T09:17:01.372Z,73.13
2018-12-27T09:18:01.364Z,73.13
2018-12-27T09:19:01.280Z,73.13
2018-12-27T09:20:01.273Z,73.13
2018-12-27T09:21:01.218Z,73.13
2018-12-27T09:22:01.186Z,73.13
2018-12-27T09:23:01.201Z,73.13
2018-12-27T09:24:01.118Z,78.75
2018-12-27T09:25:01.127Z,78.75
2018-12-27T09:26:01.076Z,67.50
2018-12-27T09:27:01.024Z,61.88
2018-12-27T09:28:01.034Z,73.13
2018-12-27T09:29:00.985Z,67.50
2018-12-27T09:30:00.920Z,67.50
2018-12-27T09:31:00.887Z,67.50
2018-12-27T09:32:00.876Z,73.13
2018-12-27T09:33:00.877Z,73.13
2018-12-27T09:34:01.531Z,67.50
2018-12-27T09:35:00.774Z,73.13
2018-12-27T09:36:00.782Z,73.13
2018-12-27T09:37:00.688Z,67.50
2018-12-27T09:38:00.655Z,67.50
2018-12-27T09:39:00.677Z,67.50
2018-12-27T09:40:00.590Z,56.25
2018-12-27T09:41:00.563Z,73.13
2018-12-27T09:42:00.525Z,78.75
2018-12-27T09:43:00.497Z,90.00
2018-12-27T09:44:00.497Z,112.50
2018-12-27T09:45:00.437Z,112.50
2018-12-27T09:46:00.392Z,95.63
2018-12-27T09:47:00.360Z,95.63
2018-12-27T09:48:00.360Z,95.63
2018-12-27T09:49:00.293Z,95.63
2018-12-27T09:50:00.311Z,84.38
2018-12-27T09:51:00.222Z,90.00
2018-12-27T09:52:02.217Z,95.63
2018-12-27T09:53:00.166Z,90.00
2018-12-27T09:54:00.185Z,95.63
2018-12-27T09:55:00.593Z,101.25
2018-12-27T09:56:00.069Z,90.00
2018-12-27T09:57:00.031Z,84.38
2018-12-27T09:58:00.004Z,84.38
2018-12-27T09:58:59.979Z,90.00
2018-12-27T09:59:59.980Z,106.88
2018-12-27T10:00:59.946Z,123.75
2018-12-27T10:01:59.871Z,123.75
2018-12-27T10:02:59.833Z,118.13
2018-12-27T10:03:59.805Z,112.50
2018-12-27T10:05:00.154Z,123.75
2018-12-27T10:05:59.744Z,112.50
2018-12-27T10:06:59.753Z,123.75
2018-12-27T10:07:59.675Z,118.13
2018-12-27T10:08:59.639Z,118.13
2018-12-27T10:09:59.604Z,112.50
2018-12-27T10:10:59.582Z,123.75
2018-12-27T10:11:59.580Z,123.75
2018-12-27T10:12:59.510Z,112.50
2018-12-27T10:13:59.474Z,118.13
2018-12-27T10:15:00.036Z,118.13
2018-12-27T10:15:59.447Z,123.75
2018-12-27T10:16:59.429Z,123.75
2018-12-27T10:17:59.398Z,123.75
2018-12-27T10:18:59.316Z,129.38
2018-12-27T10:19:59.321Z,135.00
2018-12-27T10:20:59.246Z,123.75
2018-12-27T10:21:59.208Z,129.38
2018-12-27T10:22:59.226Z,123.75
2018-12-27T10:23:59.146Z,112.50
2018-12-27T10:24:59.121Z,129.38
2018-12-27T10:25:59.099Z,123.75
2018-12-27T10:26:59.056Z,118.13
2018-12-27T10:27:59.069Z,123.75
2018-12-27T10:28:58.982Z,112.50
2018-12-27T10:29:58.950Z,101.25
2018-12-27T10:30:59.968Z,118.13
2018-12-27T10:31:58.886Z,118.13
2018-12-27T10:32:58.958Z,112.50
2018-12-27T10:33:58.825Z,123.75
2018-12-27T10:34:58.794Z,123.75
2018-12-27T10:35:58.765Z,129.38
2018-12-27T10:36:59.538Z,129.38
2018-12-27T10:37:58.742Z,140.63
2018-12-27T10:38:58.669Z,135.00
2018-12-27T10:39:58.696Z,129.38
2018-12-27T10:40:58.598Z,135.00
2018-12-27T10:41:58.565Z,135.00
2018-12-27T10:42:58.536Z,135.00
2018-12-27T10:43:58.551Z,123.75
2018-12-27T10:44:58.462Z,118.13
2018-12-27T10:45:58.429Z,135.00
2018-12-27T10:46:58.400Z,140.63
2018-12-27T10:47:58.410Z,151.88
2018-12-27T10:48:58.389Z,151.88
2018-12-27T10:49:58.355Z,146.25
2018-12-27T10:50:58.278Z,151.88
2018-12-27T10:51:58.239Z,157.50
2018-12-27T10:52:58.213Z,163.13
2018-12-27T10:53:58.179Z,146.25
2018-12-27T10:54:58.193Z,151.88
2018-12-27T10:55:58.106Z,174.38
2018-12-27T10:56:58.074Z,168.75
2018-12-27T10:57:58.048Z,163.13
2018-12-27T10:58:58.086Z,151.88
2018-12-27T10:59:58.950Z,157.50
2018-12-27T11:00:57.993Z,157.50
2018-12-27T11:01:57.921Z,163.13
2018-12-27T11:02:57.889Z,146.25
2018-12-27T11:03:57.853Z,140.63
2018-12-27T11:04:57.816Z,151.88
2018-12-27T11:05:57.826Z,151.88
2018-12-27T11:06:57.754Z,135.00
2018-12-27T11:07:57.721Z,118.13
2018-12-27T11:08:57.685Z,123.75
2018-12-27T11:09:57.658Z,140.63
2018-12-27T11:10:57.683Z,151.88
2018-12-27T11:11:57.650Z,157.50
2018-12-27T11:12:57.558Z,146.25
2018-12-27T11:13:57.525Z,129.38
2018-12-27T11:14:57.496Z,135.00
2018-12-27T11:15:57.504Z,135.00
2018-12-27T11:16:57.427Z,135.00
2018-12-27T11:17:57.395Z,140.63
2018-12-27T11:18:57.421Z,157.50
2018-12-27T11:19:57.327Z,163.13
2018-12-27T11:20:57.310Z,168.75
2018-12-27T11:21:57.263Z,140.63
2018-12-27T11:22:57.235Z,157.50
2018-12-27T11:23:57.246Z,185.63
2018-12-27T11:24:58.047Z,163.13
2018-12-27T11:25:57.140Z,185.63
2018-12-27T11:26:57.100Z,202.50
2018-12-27T11:27:57.070Z,213.75
2018-12-27T11:28:57.071Z,196.88
2018-12-27T11:29:57.011Z,180.00
2018-12-27T11:30:58.088Z,174.38
2018-12-27T11:31:56.940Z,157.50
2018-12-27T11:32:56.952Z,146.25
2018-12-27T11:33:56.889Z,168.75
2018-12-27T11:34:56.893Z,163.13
2018-12-27T11:35:56.810Z,151.88
2018-12-27T11:36:56.776Z,174.38
2018-12-27T11:37:57.455Z,163.13
2018-12-27T11:38:56.716Z,146.25
2018-12-27T11:39:56.724Z,163.13
2018-12-27T11:40:56.648Z,140.63
2018-12-27T11:41:56.621Z,135.00
2018-12-27T11:42:56.659Z,163.13
2018-12-27T11:43:57.549Z,191.25
2018-12-27T11:44:56.520Z,191.25
2018-12-27T11:45:56.489Z,202.50
2018-12-27T11:46:56.457Z,236.25
2018-12-27T11:47:56.509Z,219.38
2018-12-27T11:48:56.393Z,230.63
2018-12-27T11:49:56.368Z,191.25
2018-12-27T11:50:56.375Z,196.88
2018-12-27T11:51:56.302Z,174.38
2018-12-27T11:52:56.268Z,196.88
2018-12-27T11:53:56.277Z,180.00
2018-12-27T11:54:57.047Z,146.25
2018-12-27T11:55:56.210Z,129.38
2018-12-27T11:56:57.048Z,140.63
2018-12-27T11:57:56.101Z,135.00
2018-12-27T11:58:56.073Z,129.38
2018-12-27T11:59:56.066Z,123.75
2018-12-27T12:00:56.059Z,112.50
2018-12-27T12:01:55.980Z,112.50
2018-12-27T12:02:56.016Z,118.13
2018-12-27T12:03:55.967Z,112.50
2018-12-27T12:04:55.878Z,118.13
2018-12-27T12:06:02.983Z,140.63
2018-12-27T12:06:55.814Z,129.38
2018-12-27T12:07:55.778Z,118.13
2018-12-27T12:08:55.793Z,112.50
2018-12-27T12:09:55.726Z,106.88
2018-12-27T12:10:55.687Z,118.13
2018-12-27T12:11:55.754Z,118.13
2018-12-27T12:12:55.619Z,112.50
2018-12-27T12:13:55.607Z,118.13
2018-12-27T12:14:55.555Z,129.38
2018-12-27T12:15:55.526Z,135.00
2018-12-27T12:16:55.539Z,129.38
2018-12-27T12:17:55.459Z,123.75
2018-12-27T12:18:55.456Z,140.63
2018-12-27T12:19:55.398Z,135.00
2018-12-27T12:20:55.361Z,129.38
2018-12-27T12:21:55.449Z,146.25
2018-12-27T12:22:55.338Z,146.25
2018-12-27T12:23:55.267Z,140.63
2018-12-27T12:24:55.230Z,135.00
2018-12-27T12:25:55.335Z,146.25
2018-12-27T12:26:55.218Z,146.25
2018-12-27T12:27:55.145Z,140.63
2018-12-27T12:28:55.107Z,129.38
2018-12-27T12:29:55.071Z,151.88
2018-12-27T12:30:55.039Z,168.75
2018-12-27T12:31:55.041Z,151.88
2018-12-27T12:32:54.977Z,151.88
2018-12-27T12:33:54.991Z,168.75
2018-12-27T12:34:54.905Z,168.75
2018-12-27T12:35:55.552Z,168.75
2018-12-27T12:36:54.846Z,196.88
2018-12-27T12:37:55.112Z,196.88
2018-12-27T12:38:54.777Z,196.88
2018-12-27T12:39:54.746Z,163.13
2018-12-27T12:40:54.713Z,151.88
2018-12-27T12:41:54.683Z,174.38
2018-12-27T12:42:54.708Z,191.25
2018-12-27T12:43:54.617Z,208.13
2018-12-27T12:44:54.590Z,191.25
2018-12-27T12:45:54.554Z,202.50
2018-12-27T12:46:54.522Z,208.13
2018-12-27T12:47:54.555Z,202.50
2018-12-27T12:48:54.479Z,202.50
2018-12-27T12:49:54.425Z,185.63
2018-12-27T12:50:54.391Z,191.25
2018-12-27T12:51:54.361Z,191.25
2018-12-27T12:52:54.373Z,191.25
2018-12-27T12:53:54.295Z,196.88
2018-12-27T12:54:54.307Z,174.38
2018-12-27T12:55:54.229Z,180.00
2018-12-27T12:56:54.200Z,191.25
2018-12-27T12:57:54.167Z,157.50
2018-12-27T12:58:54.136Z,151.88
2018-12-27T12:59:54.148Z,146.25